sensor_id;sensor_type;location;lat;lon;timestamp;P1;durP1;ratioP1;P2;durP2;ratioP2
34497;SDS011;20744;50.938;7.286;2022-11-06T00:00:51;14.32;;;8.93;;
34497;SDS011;20744;50.938;7.286;2022-11-06T00:03:18;13.93;;;8.55;;
34497;SDS011;20744;50.938;7.286;2022-11-06T00:05:46;13.75;;;9.30;;
34497;SDS011;20744;50.938;7.286;2022-11-06T00:08:31;22.80;;;9.30;;
34497;SDS011;20744;50.938;7.286;2022-11-06T00:11:00;20.83;;;9.23;;
34497;SDS011;20744;50.938;7.286;2022-11-06T00:13:28;20.77;;;8.98;;
34497;SDS011;20744;50.938;7.286;2022-11-06T00:15:58;17.98;;;8.75;;
34497;SDS011;20744;50.938;7.286;2022-11-06T00:18:27;20.65;;;9.27;;
34497;SDS011;20744;50.938;7.286;2022-11-06T00:20:54;14.18;;;8.50;;
34497;SDS011;20744;50.938;7.286;2022-11-06T00:23:22;17.88;;;9.02;;
34497;SDS011;20744;50.938;7.286;2022-11-06T00:25:49;15.82;;;8.43;;
34497;SDS011;20744;50.938;7.286;2022-11-06T00:28:21;12.75;;;8.05;;
34497;SDS011;20744;50.938;7.286;2022-11-06T00:30:49;14.07;;;8.65;;
34497;SDS011;20744;50.938;7.286;2022-11-06T00:33:16;18.50;;;8.00;;
34497;SDS011;20744;50.938;7.286;2022-11-06T00:35:43;13.30;;;7.80;;
34497;SDS011;20744;50.938;7.286;2022-11-06T00:38:10;13.43;;;7.53;;
34497;SDS011;20744;50.938;7.286;2022-11-06T00:40:37;11.55;;;6.85;;
34497;SDS011;20744;50.938;7.286;2022-11-06T00:43:05;13.95;;;7.28;;
34497;SDS011;20744;50.938;7.286;2022-11-06T00:45:33;16.52;;;7.25;;
34497;SDS011;20744;50.938;7.286;2022-11-06T00:48:00;15.40;;;7.75;;
34497;SDS011;20744;50.938;7.286;2022-11-06T00:50:28;15.27;;;7.43;;
34497;SDS011;20744;50.938;7.286;2022-11-06T00:52:55;13.30;;;7.15;;
34497;SDS011;20744;50.938;7.286;2022-11-06T00:55:22;15.35;;;6.90;;
34497;SDS011;20744;50.938;7.286;2022-11-06T00:57:49;14.50;;;7.63;;
34497;SDS011;20744;50.938;7.286;2022-11-06T01:00:17;15.23;;;7.78;;
34497;SDS011;20744;50.938;7.286;2022-11-06T01:02:46;13.68;;;7.53;;
34497;SDS011;20744;50.938;7.286;2022-11-06T01:05:14;14.90;;;6.38;;
34497;SDS011;20744;50.938;7.286;2022-11-06T01:07:41;16.98;;;6.80;;
34497;SDS011;20744;50.938;7.286;2022-11-06T01:10:08;12.90;;;6.57;;
34497;SDS011;20744;50.938;7.286;2022-11-06T01:12:35;15.07;;;6.53;;
34497;SDS011;20744;50.938;7.286;2022-11-06T01:15:03;13.05;;;6.25;;
34497;SDS011;20744;50.938;7.286;2022-11-06T01:17:30;10.07;;;6.32;;
34497;SDS011;20744;50.938;7.286;2022-11-06T01:19:59;13.18;;;6.85;;
34497;SDS011;20744;50.938;7.286;2022-11-06T01:22:26;11.82;;;7.03;;
34497;SDS011;20744;50.938;7.286;2022-11-06T01:24:53;15.43;;;6.80;;
34497;SDS011;20744;50.938;7.286;2022-11-06T01:27:21;13.57;;;6.70;;
34497;SDS011;20744;50.938;7.286;2022-11-06T01:29:48;20.67;;;7.43;;
34497;SDS011;20744;50.938;7.286;2022-11-06T01:32:15;11.98;;;6.72;;
34497;SDS011;20744;50.938;7.286;2022-11-06T01:34:43;16.73;;;6.93;;
34497;SDS011;20744;50.938;7.286;2022-11-06T01:37:12;14.38;;;6.60;;
34497;SDS011;20744;50.938;7.286;2022-11-06T01:39:39;13.52;;;7.28;;
34497;SDS011;20744;50.938;7.286;2022-11-06T01:42:08;19.20;;;6.57;;
34497;SDS011;20744;50.938;7.286;2022-11-06T01:47:36;11.82;;;6.20;;
34497;SDS011;20744;50.938;7.286;2022-11-06T01:50:04;12.13;;;6.18;;
34497;SDS011;20744;50.938;7.286;2022-11-06T01:52:34;13.35;;;6.65;;
34497;SDS011;20744;50.938;7.286;2022-11-06T01:55:03;12.07;;;6.90;;
34497;SDS011;20744;50.938;7.286;2022-11-06T01:57:32;9.90;;;6.40;;
34497;SDS011;20744;50.938;7.286;2022-11-06T02:00:00;12.40;;;6.90;;
34497;SDS011;20744;50.938;7.286;2022-11-06T02:02:27;13.02;;;6.80;;
34497;SDS011;20744;50.938;7.286;2022-11-06T02:04:55;15.30;;;6.53;;
34497;SDS011;20744;50.938;7.286;2022-11-06T02:07:22;13.70;;;6.38;;
34497;SDS011;20744;50.938;7.286;2022-11-06T02:09:51;16.05;;;6.50;;
34497;SDS011;20744;50.938;7.286;2022-11-06T02:12:21;13.52;;;6.47;;
34497;SDS011;20744;50.938;7.286;2022-11-06T02:14:55;13.65;;;7.32;;
34497;SDS011;20744;50.938;7.286;2022-11-06T02:17:26;18.48;;;6.60;;
34497;SDS011;20744;50.938;7.286;2022-11-06T02:19:58;14.63;;;6.70;;
34497;SDS011;20744;50.938;7.286;2022-11-06T02:22:39;12.98;;;6.55;;
34497;SDS011;20744;50.938;7.286;2022-11-06T02:25:18;12.60;;;6.38;;
34497;SDS011;20744;50.938;7.286;2022-11-06T02:27:50;15.45;;;6.78;;
34497;SDS011;20744;50.938;7.286;2022-11-06T02:30:17;12.88;;;6.35;;
34497;SDS011;20744;50.938;7.286;2022-11-06T02:32:45;11.57;;;6.45;;
34497;SDS011;20744;50.938;7.286;2022-11-06T02:35:17;12.73;;;6.60;;
34497;SDS011;20744;50.938;7.286;2022-11-06T02:37:45;12.18;;;6.18;;
34497;SDS011;20744;50.938;7.286;2022-11-06T02:40:13;13.68;;;7.20;;
34497;SDS011;20744;50.938;7.286;2022-11-06T02:42:42;12.70;;;6.07;;
34497;SDS011;20744;50.938;7.286;2022-11-06T02:45:12;16.17;;;6.47;;
34497;SDS011;20744;50.938;7.286;2022-11-06T02:47:41;15.88;;;6.82;;
34497;SDS011;20744;50.938;7.286;2022-11-06T02:50:09;14.98;;;6.88;;
34497;SDS011;20744;50.938;7.286;2022-11-06T02:52:38;16.35;;;6.00;;
34497;SDS011;20744;50.938;7.286;2022-11-06T02:55:07;13.88;;;6.68;;
34497;SDS011;20744;50.938;7.286;2022-11-06T02:57:36;17.77;;;6.88;;
34497;SDS011;20744;50.938;7.286;2022-11-06T03:00:04;14.77;;;6.32;;
34497;SDS011;20744;50.938;7.286;2022-11-06T03:02:34;13.60;;;6.50;;
34497;SDS011;20744;50.938;7.286;2022-11-06T03:05:04;12.77;;;6.47;;
34497;SDS011;20744;50.938;7.286;2022-11-06T03:07:33;15.88;;;6.38;;
34497;SDS011;20744;50.938;7.286;2022-11-06T03:10:02;14.27;;;6.07;;
34497;SDS011;20744;50.938;7.286;2022-11-06T03:12:30;18.10;;;6.80;;
34497;SDS011;20744;50.938;7.286;2022-11-06T03:14:59;17.02;;;6.13;;
34497;SDS011;20744;50.938;7.286;2022-11-06T03:17:30;14.13;;;5.90;;
34497;SDS011;20744;50.938;7.286;2022-11-06T03:20:05;13.80;;;5.85;;
34497;SDS011;20744;50.938;7.286;2022-11-06T03:22:37;14.65;;;5.90;;
34497;SDS011;20744;50.938;7.286;2022-11-06T03:25:10;15.40;;;6.25;;
34497;SDS011;20744;50.938;7.286;2022-11-06T03:27:43;13.88;;;6.05;;
34497;SDS011;20744;50.938;7.286;2022-11-06T03:30:13;17.88;;;6.20;;
34497;SDS011;20744;50.938;7.286;2022-11-06T03:32:42;14.65;;;5.65;;
34497;SDS011;20744;50.938;7.286;2022-11-06T03:35:14;13.20;;;5.95;;
34497;SDS011;20744;50.938;7.286;2022-11-06T03:37:45;14.02;;;5.75;;
34497;SDS011;20744;50.938;7.286;2022-11-06T03:40:15;9.35;;;5.30;;
34497;SDS011;20744;50.938;7.286;2022-11-06T03:42:45;14.65;;;5.00;;
34497;SDS011;20744;50.938;7.286;2022-11-06T03:45:13;13.73;;;5.22;;
34497;SDS011;20744;50.938;7.286;2022-11-06T03:47:42;13.30;;;5.45;;
34497;SDS011;20744;50.938;7.286;2022-11-06T03:50:11;10.23;;;5.13;;
34497;SDS011;20744;50.938;7.286;2022-11-06T03:52:41;9.43;;;4.70;;
34497;SDS011;20744;50.938;7.286;2022-11-06T03:55:11;12.75;;;4.50;;
34497;SDS011;20744;50.938;7.286;2022-11-06T03:57:40;11.45;;;5.22;;
34497;SDS011;20744;50.938;7.286;2022-11-06T04:00:09;10.23;;;5.10;;
34497;SDS011;20744;50.938;7.286;2022-11-06T04:02:38;9.02;;;4.53;;
34497;SDS011;20744;50.938;7.286;2022-11-06T04:05:08;15.57;;;5.00;;
34497;SDS011;20744;50.938;7.286;2022-11-06T04:07:37;20.52;;;5.18;;
34497;SDS011;20744;50.938;7.286;2022-11-06T04:10:08;12.65;;;4.78;;
34497;SDS011;20744;50.938;7.286;2022-11-06T04:12:54;11.02;;;5.05;;
34497;SDS011;20744;50.938;7.286;2022-11-06T04:15:40;13.48;;;4.72;;
34497;SDS011;20744;50.938;7.286;2022-11-06T04:18:10;11.50;;;5.05;;
34497;SDS011;20744;50.938;7.286;2022-11-06T04:20:41;9.35;;;4.50;;
34497;SDS011;20744;50.938;7.286;2022-11-06T04:23:31;10.13;;;4.85;;
34497;SDS011;20744;50.938;7.286;2022-11-06T04:26:04;13.55;;;4.70;;
34497;SDS011;20744;50.938;7.286;2022-11-06T04:28:51;10.77;;;5.00;;
34497;SDS011;20744;50.938;7.286;2022-11-06T04:31:21;9.77;;;4.68;;
34497;SDS011;20744;50.938;7.286;2022-11-06T04:33:54;13.85;;;4.40;;
34497;SDS011;20744;50.938;7.286;2022-11-06T04:36:25;12.98;;;4.45;;
34497;SDS011;20744;50.938;7.286;2022-11-06T04:39:00;8.20;;;4.00;;
34497;SDS011;20744;50.938;7.286;2022-11-06T04:41:31;13.85;;;4.28;;
34497;SDS011;20744;50.938;7.286;2022-11-06T04:44:01;14.82;;;4.60;;
34497;SDS011;20744;50.938;7.286;2022-11-06T04:46:31;10.32;;;4.43;;
34497;SDS011;20744;50.938;7.286;2022-11-06T04:48:59;10.43;;;4.30;;
34497;SDS011;20744;50.938;7.286;2022-11-06T04:51:30;12.32;;;4.32;;
34497;SDS011;20744;50.938;7.286;2022-11-06T04:53:57;10.55;;;4.63;;
34497;SDS011;20744;50.938;7.286;2022-11-06T04:56:27;11.00;;;4.32;;
34497;SDS011;20744;50.938;7.286;2022-11-06T04:58:57;15.23;;;4.45;;
34497;SDS011;20744;50.938;7.286;2022-11-06T05:01:24;18.13;;;5.07;;
34497;SDS011;20744;50.938;7.286;2022-11-06T05:03:51;11.52;;;4.40;;
34497;SDS011;20744;50.938;7.286;2022-11-06T05:06:18;12.20;;;4.47;;
34497;SDS011;20744;50.938;7.286;2022-11-06T05:08:46;12.30;;;4.63;;
34497;SDS011;20744;50.938;7.286;2022-11-06T05:11:13;8.55;;;4.00;;
34497;SDS011;20744;50.938;7.286;2022-11-06T05:13:40;13.88;;;3.90;;
34497;SDS011;20744;50.938;7.286;2022-11-06T05:16:09;11.48;;;4.13;;
34497;SDS011;20744;50.938;7.286;2022-11-06T05:18:36;13.50;;;4.50;;
34497;SDS011;20744;50.938;7.286;2022-11-06T05:21:03;10.27;;;4.38;;
34497;SDS011;20744;50.938;7.286;2022-11-06T05:23:48;9.60;;;4.18;;
34497;SDS011;20744;50.938;7.286;2022-11-06T05:26:15;13.55;;;3.70;;
34497;SDS011;20744;50.938;7.286;2022-11-06T05:28:43;10.93;;;3.78;;
34497;SDS011;20744;50.938;7.286;2022-11-06T05:31:11;9.68;;;3.60;;
34497;SDS011;20744;50.938;7.286;2022-11-06T05:33:38;10.38;;;3.47;;
34497;SDS011;20744;50.938;7.286;2022-11-06T05:36:06;9.82;;;3.25;;
34497;SDS011;20744;50.938;7.286;2022-11-06T05:38:33;12.20;;;3.45;;
34497;SDS011;20744;50.938;7.286;2022-11-06T05:41:00;9.40;;;4.03;;
34497;SDS011;20744;50.938;7.286;2022-11-06T05:43:28;12.20;;;3.15;;
34497;SDS011;20744;50.938;7.286;2022-11-06T05:45:55;7.00;;;3.25;;
34497;SDS011;20744;50.938;7.286;2022-11-06T05:48:25;12.95;;;3.58;;
34497;SDS011;20744;50.938;7.286;2022-11-06T05:50:53;8.30;;;2.97;;
34497;SDS011;20744;50.938;7.286;2022-11-06T05:53:25;10.02;;;2.70;;
34497;SDS011;20744;50.938;7.286;2022-11-06T05:55:52;7.45;;;3.20;;
34497;SDS011;20744;50.938;7.286;2022-11-06T05:58:20;12.63;;;3.33;;
34497;SDS011;20744;50.938;7.286;2022-11-06T06:00:47;11.65;;;2.90;;
34497;SDS011;20744;50.938;7.286;2022-11-06T06:03:14;11.73;;;3.25;;
34497;SDS011;20744;50.938;7.286;2022-11-06T06:05:43;9.18;;;3.08;;
34497;SDS011;20744;50.938;7.286;2022-11-06T06:08:10;9.45;;;3.13;;
34497;SDS011;20744;50.938;7.286;2022-11-06T06:10:39;8.75;;;2.90;;
34497;SDS011;20744;50.938;7.286;2022-11-06T06:13:06;12.55;;;3.35;;
34497;SDS011;20744;50.938;7.286;2022-11-06T06:15:33;11.82;;;3.20;;
34497;SDS011;20744;50.938;7.286;2022-11-06T06:18:01;15.00;;;3.30;;
34497;SDS011;20744;50.938;7.286;2022-11-06T06:20:28;14.45;;;3.72;;
34497;SDS011;20744;50.938;7.286;2022-11-06T06:22:57;11.23;;;3.22;;
34497;SDS011;20744;50.938;7.286;2022-11-06T06:25:25;13.50;;;3.05;;
34497;SDS011;20744;50.938;7.286;2022-11-06T06:27:52;10.93;;;3.13;;
34497;SDS011;20744;50.938;7.286;2022-11-06T06:30:20;13.68;;;2.72;;
34497;SDS011;20744;50.938;7.286;2022-11-06T06:32:48;9.43;;;3.28;;
34497;SDS011;20744;50.938;7.286;2022-11-06T06:35:15;8.75;;;2.88;;
34497;SDS011;20744;50.938;7.286;2022-11-06T06:37:42;11.35;;;2.95;;
34497;SDS011;20744;50.938;7.286;2022-11-06T06:40:11;11.85;;;3.03;;
34497;SDS011;20744;50.938;7.286;2022-11-06T06:42:38;9.70;;;2.67;;
34497;SDS011;20744;50.938;7.286;2022-11-06T06:45:06;9.38;;;3.17;;
34497;SDS011;20744;50.938;7.286;2022-11-06T06:47:33;12.75;;;2.70;;
34497;SDS011;20744;50.938;7.286;2022-11-06T06:50:00;10.93;;;2.95;;
34497;SDS011;20744;50.938;7.286;2022-11-06T06:52:27;9.20;;;2.53;;
34497;SDS011;20744;50.938;7.286;2022-11-06T06:54:55;13.02;;;2.85;;
34497;SDS011;20744;50.938;7.286;2022-11-06T06:57:23;15.68;;;3.30;;
34497;SDS011;20744;50.938;7.286;2022-11-06T06:59:50;11.82;;;2.80;;
34497;SDS011;20744;50.938;7.286;2022-11-06T07:02:18;12.80;;;3.30;;
34497;SDS011;20744;50.938;7.286;2022-11-06T07:04:45;11.02;;;2.90;;
34497;SDS011;20744;50.938;7.286;2022-11-06T07:07:12;8.18;;;2.88;;
34497;SDS011;20744;50.938;7.286;2022-11-06T07:09:39;8.73;;;2.97;;
34497;SDS011;20744;50.938;7.286;2022-11-06T07:12:07;9.30;;;2.80;;
34497;SDS011;20744;50.938;7.286;2022-11-06T07:14:35;10.25;;;2.92;;
34497;SDS011;20744;50.938;7.286;2022-11-06T07:17:02;8.25;;;2.47;;
34497;SDS011;20744;50.938;7.286;2022-11-06T07:19:30;11.82;;;2.65;;
34497;SDS011;20744;50.938;7.286;2022-11-06T07:21:57;6.15;;;2.42;;
34497;SDS011;20744;50.938;7.286;2022-11-06T07:24:24;9.95;;;2.85;;
34497;SDS011;20744;50.938;7.286;2022-11-06T07:26:51;10.70;;;3.00;;
34497;SDS011;20744;50.938;7.286;2022-11-06T07:29:19;12.57;;;4.50;;
34497;SDS011;20744;50.938;7.286;2022-11-06T07:31:47;11.07;;;2.92;;
34497;SDS011;20744;50.938;7.286;2022-11-06T07:34:14;14.95;;;3.45;;
34497;SDS011;20744;50.938;7.286;2022-11-06T07:36:42;15.05;;;4.07;;
34497;SDS011;20744;50.938;7.286;2022-11-06T07:39:09;15.32;;;3.88;;
34497;SDS011;20744;50.938;7.286;2022-11-06T07:41:36;9.40;;;3.00;;
34497;SDS011;20744;50.938;7.286;2022-11-06T07:44:04;12.57;;;2.90;;
34497;SDS011;20744;50.938;7.286;2022-11-06T07:46:31;12.05;;;3.40;;
34497;SDS011;20744;50.938;7.286;2022-11-06T07:48:59;7.90;;;2.80;;
34497;SDS011;20744;50.938;7.286;2022-11-06T07:51:27;12.65;;;2.92;;
34497;SDS011;20744;50.938;7.286;2022-11-06T07:53:54;10.85;;;3.10;;
34497;SDS011;20744;50.938;7.286;2022-11-06T07:56:21;5.95;;;2.72;;
34497;SDS011;20744;50.938;7.286;2022-11-06T07:58:48;10.15;;;2.47;;
34497;SDS011;20744;50.938;7.286;2022-11-06T08:01:16;11.40;;;3.25;;
34497;SDS011;20744;50.938;7.286;2022-11-06T08:03:43;17.60;;;2.90;;
34497;SDS011;20744;50.938;7.286;2022-11-06T08:06:12;7.25;;;3.00;;
34497;SDS011;20744;50.938;7.286;2022-11-06T08:08:39;7.45;;;2.60;;
34497;SDS011;20744;50.938;7.286;2022-11-06T08:11:07;9.43;;;2.50;;
34497;SDS011;20744;50.938;7.286;2022-11-06T08:13:34;14.02;;;3.05;;
34497;SDS011;20744;50.938;7.286;2022-11-06T08:16:02;10.57;;;2.67;;
34497;SDS011;20744;50.938;7.286;2022-11-06T08:18:30;12.18;;;2.78;;
34497;SDS011;20744;50.938;7.286;2022-11-06T08:20:57;14.68;;;3.03;;
34497;SDS011;20744;50.938;7.286;2022-11-06T08:23:26;9.68;;;2.80;;
34497;SDS011;20744;50.938;7.286;2022-11-06T08:25:54;8.05;;;2.78;;
34497;SDS011;20744;50.938;7.286;2022-11-06T08:28:21;10.50;;;2.85;;
34497;SDS011;20744;50.938;7.286;2022-11-06T08:30:48;11.98;;;3.13;;
34497;SDS011;20744;50.938;7.286;2022-11-06T08:33:16;9.85;;;2.60;;
34497;SDS011;20744;50.938;7.286;2022-11-06T08:35:43;13.38;;;2.90;;
34497;SDS011;20744;50.938;7.286;2022-11-06T08:38:11;11.18;;;2.80;;
34497;SDS011;20744;50.938;7.286;2022-11-06T08:40:40;14.43;;;2.80;;
34497;SDS011;20744;50.938;7.286;2022-11-06T08:43:08;9.23;;;3.03;;
34497;SDS011;20744;50.938;7.286;2022-11-06T08:45:36;8.70;;;2.60;;
34497;SDS011;20744;50.938;7.286;2022-11-06T08:48:04;7.90;;;2.40;;
34497;SDS011;20744;50.938;7.286;2022-11-06T08:50:31;8.77;;;2.90;;
34497;SDS011;20744;50.938;7.286;2022-11-06T08:52:59;8.00;;;2.50;;
34497;SDS011;20744;50.938;7.286;2022-11-06T08:55:28;10.77;;;2.40;;
34497;SDS011;20744;50.938;7.286;2022-11-06T08:57:56;7.50;;;2.30;;
34497;SDS011;20744;50.938;7.286;2022-11-06T09:00:24;9.88;;;2.40;;
34497;SDS011;20744;50.938;7.286;2022-11-06T09:02:56;13.07;;;2.70;;
34497;SDS011;20744;50.938;7.286;2022-11-06T09:05:23;10.23;;;3.00;;
34497;SDS011;20744;50.938;7.286;2022-11-06T09:07:51;9.43;;;2.80;;
34497;SDS011;20744;50.938;7.286;2022-11-06T09:10:18;13.65;;;2.72;;
34497;SDS011;20744;50.938;7.286;2022-11-06T09:12:46;8.15;;;2.40;;
34497;SDS011;20744;50.938;7.286;2022-11-06T09:15:14;6.50;;;2.60;;
34497;SDS011;20744;50.938;7.286;2022-11-06T09:17:42;13.13;;;3.00;;
34497;SDS011;20744;50.938;7.286;2022-11-06T09:20:10;7.57;;;2.28;;
34497;SDS011;20744;50.938;7.286;2022-11-06T09:22:37;6.97;;;2.38;;
34497;SDS011;20744;50.938;7.286;2022-11-06T09:25:05;6.95;;;2.20;;
34497;SDS011;20744;50.938;7.286;2022-11-06T09:27:39;9.23;;;2.50;;
34497;SDS011;20744;50.938;7.286;2022-11-06T09:30:07;12.93;;;2.80;;
34497;SDS011;20744;50.938;7.286;2022-11-06T09:32:36;10.65;;;2.83;;
34497;SDS011;20744;50.938;7.286;2022-11-06T09:35:04;6.40;;;2.60;;
34497;SDS011;20744;50.938;7.286;2022-11-06T09:37:31;9.52;;;2.90;;
34497;SDS011;20744;50.938;7.286;2022-11-06T09:39:58;10.38;;;2.47;;
34497;SDS011;20744;50.938;7.286;2022-11-06T09:42:28;10.25;;;2.80;;
34497;SDS011;20744;50.938;7.286;2022-11-06T09:44:59;8.40;;;2.47;;
34497;SDS011;20744;50.938;7.286;2022-11-06T09:47:28;9.23;;;2.55;;
34497;SDS011;20744;50.938;7.286;2022-11-06T09:49:59;5.55;;;2.28;;
34497;SDS011;20744;50.938;7.286;2022-11-06T09:52:30;5.55;;;2.33;;
34497;SDS011;20744;50.938;7.286;2022-11-06T09:55:00;7.57;;;2.22;;
34497;SDS011;20744;50.938;7.286;2022-11-06T09:57:29;7.25;;;2.47;;
34497;SDS011;20744;50.938;7.286;2022-11-06T09:59:58;6.00;;;2.55;;
34497;SDS011;20744;50.938;7.286;2022-11-06T10:02:28;10.30;;;2.80;;
34497;SDS011;20744;50.938;7.286;2022-11-06T10:04:58;6.80;;;2.50;;
34497;SDS011;20744;50.938;7.286;2022-11-06T10:07:30;6.55;;;2.40;;
34497;SDS011;20744;50.938;7.286;2022-11-06T10:09:59;7.03;;;2.70;;
34497;SDS011;20744;50.938;7.286;2022-11-06T10:12:30;7.97;;;2.42;;
34497;SDS011;20744;50.938;7.286;2022-11-06T10:15:03;7.28;;;2.40;;
34497;SDS011;20744;50.938;7.286;2022-11-06T10:17:37;9.90;;;2.35;;
34497;SDS011;20744;50.938;7.286;2022-11-06T10:20:09;9.02;;;3.17;;
34497;SDS011;20744;50.938;7.286;2022-11-06T10:22:40;13.70;;;2.97;;
34497;SDS011;20744;50.938;7.286;2022-11-06T10:25:12;7.10;;;2.20;;
34497;SDS011;20744;50.938;7.286;2022-11-06T10:27:50;6.78;;;2.17;;
34497;SDS011;20744;50.938;7.286;2022-11-06T10:33:01;10.93;;;2.63;;
34497;SDS011;20744;50.938;7.286;2022-11-06T10:35:30;8.60;;;1.80;;
34497;SDS011;20744;50.938;7.286;2022-11-06T10:38:02;8.20;;;2.42;;
34497;SDS011;20744;50.938;7.286;2022-11-06T10:40:32;13.23;;;2.67;;
34497;SDS011;20744;50.938;7.286;2022-11-06T10:43:03;9.02;;;2.47;;
34497;SDS011;20744;50.938;7.286;2022-11-06T10:45:33;5.97;;;1.98;;
34497;SDS011;20744;50.938;7.286;2022-11-06T10:48:05;9.45;;;2.00;;
34497;SDS011;20744;50.938;7.286;2022-11-06T10:50:40;6.57;;;2.30;;
34497;SDS011;20744;50.938;7.286;2022-11-06T10:53:14;7.97;;;2.40;;
34497;SDS011;20744;50.938;7.286;2022-11-06T10:55:48;6.72;;;2.20;;
34497;SDS011;20744;50.938;7.286;2022-11-06T10:58:18;11.18;;;2.35;;
34497;SDS011;20744;50.938;7.286;2022-11-06T11:00:46;9.95;;;2.50;;
34497;SDS011;20744;50.938;7.286;2022-11-06T11:03:15;9.10;;;2.00;;
34497;SDS011;20744;50.938;7.286;2022-11-06T11:05:44;7.15;;;2.28;;
34497;SDS011;20744;50.938;7.286;2022-11-06T11:08:32;5.57;;;1.85;;
34497;SDS011;20744;50.938;7.286;2022-11-06T11:11:00;8.43;;;2.22;;
34497;SDS011;20744;50.938;7.286;2022-11-06T11:13:27;7.88;;;2.08;;
34497;SDS011;20744;50.938;7.286;2022-11-06T11:15:55;8.50;;;1.90;;
34497;SDS011;20744;50.938;7.286;2022-11-06T11:18:22;9.00;;;2.05;;
34497;SDS011;20744;50.938;7.286;2022-11-06T11:21:03;6.88;;;2.15;;
34497;SDS011;20744;50.938;7.286;2022-11-06T11:23:32;13.07;;;2.22;;
34497;SDS011;20744;50.938;7.286;2022-11-06T11:26:12;7.35;;;1.83;;
34497;SDS011;20744;50.938;7.286;2022-11-06T11:28:41;6.40;;;2.00;;
34497;SDS011;20744;50.938;7.286;2022-11-06T11:31:09;5.47;;;2.08;;
34497;SDS011;20744;50.938;7.286;2022-11-06T11:33:37;10.25;;;1.80;;
34497;SDS011;20744;50.938;7.286;2022-11-06T11:36:05;5.47;;;1.92;;
34497;SDS011;20744;50.938;7.286;2022-11-06T11:38:34;5.32;;;1.92;;
34497;SDS011;20744;50.938;7.286;2022-11-06T11:41:05;4.40;;;1.50;;
34497;SDS011;20744;50.938;7.286;2022-11-06T11:43:33;5.70;;;2.17;;
34497;SDS011;20744;50.938;7.286;2022-11-06T11:46:05;3.00;;;1.30;;
34497;SDS011;20744;50.938;7.286;2022-11-06T11:48:41;8.18;;;1.70;;
34497;SDS011;20744;50.938;7.286;2022-11-06T11:51:13;6.60;;;1.80;;
34497;SDS011;20744;50.938;7.286;2022-11-06T11:53:43;7.38;;;1.65;;
34497;SDS011;20744;50.938;7.286;2022-11-06T11:56:12;7.00;;;1.55;;
34497;SDS011;20744;50.938;7.286;2022-11-06T11:58:40;6.95;;;1.77;;
34497;SDS011;20744;50.938;7.286;2022-11-06T12:01:14;4.78;;;1.60;;
34497;SDS011;20744;50.938;7.286;2022-11-06T12:03:42;6.75;;;1.73;;
34497;SDS011;20744;50.938;7.286;2022-11-06T12:06:12;5.40;;;1.58;;
34497;SDS011;20744;50.938;7.286;2022-11-06T12:08:40;2.80;;;1.48;;
34497;SDS011;20744;50.938;7.286;2022-11-06T12:11:13;3.67;;;1.20;;
34497;SDS011;20744;50.938;7.286;2022-11-06T12:13:41;5.55;;;1.52;;
34497;SDS011;20744;50.938;7.286;2022-11-06T12:16:09;6.95;;;1.48;;
34497;SDS011;20744;50.938;7.286;2022-11-06T12:18:40;4.10;;;1.30;;
34497;SDS011;20744;50.938;7.286;2022-11-06T12:21:11;4.88;;;1.33;;
34497;SDS011;20744;50.938;7.286;2022-11-06T12:23:41;4.28;;;1.48;;
34497;SDS011;20744;50.938;7.286;2022-11-06T12:26:12;8.27;;;1.58;;
34497;SDS011;20744;50.938;7.286;2022-11-06T12:28:42;5.75;;;1.13;;
34497;SDS011;20744;50.938;7.286;2022-11-06T12:31:11;6.68;;;1.52;;
34497;SDS011;20744;50.938;7.286;2022-11-06T12:33:43;5.75;;;1.50;;
34497;SDS011;20744;50.938;7.286;2022-11-06T12:36:14;7.22;;;1.70;;
34497;SDS011;20744;50.938;7.286;2022-11-06T12:38:45;8.88;;;1.20;;
34497;SDS011;20744;50.938;7.286;2022-11-06T12:41:15;4.40;;;1.10;;
34497;SDS011;20744;50.938;7.286;2022-11-06T12:43:49;5.85;;;1.42;;
34497;SDS011;20744;50.938;7.286;2022-11-06T12:49:22;3.60;;;1.20;;
34497;SDS011;20744;50.938;7.286;2022-11-06T12:51:55;6.03;;;1.30;;
34497;SDS011;20744;50.938;7.286;2022-11-06T12:54:28;8.27;;;1.27;;
34497;SDS011;20744;50.938;7.286;2022-11-06T12:57:01;5.55;;;1.13;;
34497;SDS011;20744;50.938;7.286;2022-11-06T12:59:39;4.35;;;1.20;;
34497;SDS011;20744;50.938;7.286;2022-11-06T13:02:14;4.88;;;1.20;;
34497;SDS011;20744;50.938;7.286;2022-11-06T13:04:45;5.15;;;1.42;;
34497;SDS011;20744;50.938;7.286;2022-11-06T13:10:17;6.13;;;1.33;;
34497;SDS011;20744;50.938;7.286;2022-11-06T13:12:48;6.13;;;1.20;;
34497;SDS011;20744;50.938;7.286;2022-11-06T13:15:22;7.80;;;1.50;;
34497;SDS011;20744;50.938;7.286;2022-11-06T13:17:52;4.93;;;1.23;;
34497;SDS011;20744;50.938;7.286;2022-11-06T13:20:23;4.60;;;1.20;;
34497;SDS011;20744;50.938;7.286;2022-11-06T13:22:53;4.40;;;1.40;;
34497;SDS011;20744;50.938;7.286;2022-11-06T13:25:25;5.80;;;1.52;;
34497;SDS011;20744;50.938;7.286;2022-11-06T13:27:55;3.45;;;1.10;;
34497;SDS011;20744;50.938;7.286;2022-11-06T13:30:24;3.63;;;0.90;;
34497;SDS011;20744;50.938;7.286;2022-11-06T13:32:58;2.70;;;1.20;;
34497;SDS011;20744;50.938;7.286;2022-11-06T13:35:26;5.05;;;1.35;;
34497;SDS011;20744;50.938;7.286;2022-11-06T13:37:53;4.35;;;1.30;;
34497;SDS011;20744;50.938;7.286;2022-11-06T13:40:24;4.72;;;1.35;;
34497;SDS011;20744;50.938;7.286;2022-11-06T13:42:55;4.55;;;1.17;;
34497;SDS011;20744;50.938;7.286;2022-11-06T13:45:25;6.68;;;1.40;;
34497;SDS011;20744;50.938;7.286;2022-11-06T13:47:56;4.00;;;1.17;;
34497;SDS011;20744;50.938;7.286;2022-11-06T13:50:28;5.15;;;1.23;;
34497;SDS011;20744;50.938;7.286;2022-11-06T13:52:58;5.22;;;1.40;;
34497;SDS011;20744;50.938;7.286;2022-11-06T13:55:29;4.38;;;1.17;;
34497;SDS011;20744;50.938;7.286;2022-11-06T13:58:03;6.93;;;1.70;;
34497;SDS011;20744;50.938;7.286;2022-11-06T14:00:38;6.13;;;1.60;;
34497;SDS011;20744;50.938;7.286;2022-11-06T14:03:29;4.88;;;1.30;;
34497;SDS011;20744;50.938;7.286;2022-11-06T14:06:00;4.88;;;1.13;;
34497;SDS011;20744;50.938;7.286;2022-11-06T14:08:28;4.10;;;1.42;;
34497;SDS011;20744;50.938;7.286;2022-11-06T14:10:57;8.27;;;1.55;;
34497;SDS011;20744;50.938;7.286;2022-11-06T14:13:26;6.10;;;1.50;;
34497;SDS011;20744;50.938;7.286;2022-11-06T14:15:59;4.88;;;1.30;;
34497;SDS011;20744;50.938;7.286;2022-11-06T14:18:27;4.07;;;1.50;;
34497;SDS011;20744;50.938;7.286;2022-11-06T14:23:50;2.17;;;0.90;;
34497;SDS011;20744;50.938;7.286;2022-11-06T14:32:00;4.40;;;1.50;;
34497;SDS011;20744;50.938;7.286;2022-11-06T14:34:28;3.53;;;1.08;;
34497;SDS011;20744;50.938;7.286;2022-11-06T14:36:56;3.80;;;1.10;;
34497;SDS011;20744;50.938;7.286;2022-11-06T14:42:09;4.53;;;1.38;;
34497;SDS011;20744;50.938;7.286;2022-11-06T14:47:27;2.03;;;1.00;;
34497;SDS011;20744;50.938;7.286;2022-11-06T14:49:56;3.85;;;1.20;;
34497;SDS011;20744;50.938;7.286;2022-11-06T14:52:23;3.28;;;1.10;;
34497;SDS011;20744;50.938;7.286;2022-11-06T14:54:52;5.97;;;1.35;;
34497;SDS011;20744;50.938;7.286;2022-11-06T14:57:34;5.53;;;1.40;;
34497;SDS011;20744;50.938;7.286;2022-11-06T15:00:04;2.95;;;1.52;;
34497;SDS011;20744;50.938;7.286;2022-11-06T15:02:33;2.88;;;1.23;;
34497;SDS011;20744;50.938;7.286;2022-11-06T15:05:02;4.53;;;1.10;;
34497;SDS011;20744;50.938;7.286;2022-11-06T15:07:32;6.78;;;1.10;;
34497;SDS011;20744;50.938;7.286;2022-11-06T15:10:00;4.35;;;1.13;;
34497;SDS011;20744;50.938;7.286;2022-11-06T15:15:14;5.20;;;1.10;;
34497;SDS011;20744;50.938;7.286;2022-11-06T15:17:44;3.05;;;1.10;;
34497;SDS011;20744;50.938;7.286;2022-11-06T15:20:18;3.22;;;1.52;;
34497;SDS011;20744;50.938;7.286;2022-11-06T15:22:48;2.25;;;1.10;;